Terminal Aerodrome Forecast
Issued by NWS

Home | Current Version | Previous Version | Text Only | Print | Product List | Glossary On
Versions: 1 2 3 4 5 6 7 8 9 10 11 12 13 14
000
FTUS42 TJSJ 252330
TAFIST
TAF
TIST 252330Z 2600/2624 12005KT P6SM FEW025
     FM261300 14012KT P6SM SCT025
     FM262300 10008KT P6SM FEW025=

USA.gov is the U.S. government's official web portal to all federal, state and local government web resources and services.